Time;durP1;ratioP1;P1;durP2;ratioP2;P2;SDS_P1;SDS_P2;PMS_P1;PMS_P2;Temp;Humidity;BMP_temperature;BMP_pressure;BME280_temperature;BME280_humidity;BME280_pressure;Samples;Min_cycle;Max_cycle;Signal;HPM_P1;HPM_P2
2021/08/22 00:00:34;;;;;;;5.80;5.53;;;;;;;18.35;85.25;100957.31;4382249;32;20137;-76
2021/08/22 00:02:59;;;;;;;5.57;5.28;;;;;;;18.49;85.63;100970.34;4396013;32;20069;-76
2021/08/22 00:05:24;;;;;;;5.35;5.15;;;;;;;18.37;86.33;100960.69;4384014;32;20129;-76
2021/08/22 00:07:50;;;;;;;5.20;5.00;;;;;;;18.48;85.62;100962.47;4395186;32;20116;-76
2021/08/22 00:10:15;;;;;;;5.53;5.30;;;;;;;18.51;85.09;100959.59;4404050;32;20086;-76
2021/08/22 00:12:41;;;;;;;5.60;5.30;;;;;;;18.05;85.24;100907.53;4384292;32;20087;-76
2021/08/22 00:15:07;;;;;;;5.10;4.90;;;;;;;18.34;85.66;100967.12;4395233;32;20091;-76
2021/08/22 00:17:32;;;;;;;6.15;5.85;;;;;;;18.16;85.82;100942.00;4403102;32;20506;-76
2021/08/22 00:19:57;;;;;;;5.10;4.90;;;;;;;17.96;86.47;100913.56;4397195;32;20614;-76
2021/08/22 00:22:23;;;;;;;5.82;5.53;;;;;;;18.18;86.54;100965.81;4391151;32;20166;-77
2021/08/22 00:24:48;;;;;;;5.22;5.03;;;;;;;18.06;86.74;100962.31;4395907;32;20329;-75
2021/08/22 00:27:13;;;;;;;5.15;4.95;;;;;;;17.90;86.87;100952.94;4390818;32;20099;-75
2021/08/22 00:29:39;;;;;;;5.30;5.10;;;;;;;17.33;87.36;100880.34;4387652;32;20060;-75
2021/08/22 00:32:05;;;;;;;5.20;5.00;;;;;;;16.64;88.10;100779.59;4402312;32;20099;-75
2021/08/22 00:34:30;;;;;;;7.20;6.80;;;;;;;17.58;88.70;100949.25;4378610;32;20421;-75
2021/08/22 00:36:56;;;;;;;5.40;5.20;;;;;;;17.59;89.06;100958.91;4393849;32;20342;-76
2021/08/22 00:39:24;;;;;;;5.32;5.12;;;;;;;17.64;88.61;100978.81;4390031;32;20099;-77
2021/08/22 00:41:50;;;;;;;5.45;5.15;;;;;;;17.22;89.76;100912.19;4379952;32;20703;-77
2021/08/22 00:44:15;;;;;;;6.00;5.70;;;;;;;17.27;90.01;100927.75;4393151;32;20065;-75
2021/08/22 00:46:40;;;;;;;5.53;5.32;;;;;;;17.53;89.49;100982.28;4385875;32;21414;-75
2021/08/22 00:49:06;;;;;;;5.15;4.95;;;;;;;17.51;90.10;100981.56;4395348;32;20067;-76
2021/08/22 00:51:32;;;;;;;6.00;5.70;;;;;;;17.35;89.53;100954.53;4378373;32;20649;-77
2021/08/22 00:53:57;;;;;;;5.30;5.10;;;;;;;17.44;90.33;100976.84;4383721;32;20073;-76
2021/08/22 00:56:23;;;;;;;5.10;4.90;;;;;;;17.23;89.74;100956.31;4389549;32;20661;-75
2021/08/22 00:58:48;;;;;;;5.20;5.00;;;;;;;17.01;89.10;100935.03;4378971;32;20073;-76
2021/08/22 01:01:17;;;;;;;5.20;5.00;;;;;;;17.29;90.03;100974.41;4387812;32;20073;-76
2021/08/22 01:04:07;;;;;;;5.87;5.37;;;;;;;16.82;89.16;100920.53;4386867;32;20796;-75
2021/08/22 01:06:40;;;;;;;6.22;5.93;;;;;;;17.12;89.59;100982.81;4391496;32;20227;-76
2021/08/22 01:09:09;;;;;;;5.50;5.20;;;;;;;16.23;90.28;100847.13;4415762;32;20068;-76
2021/08/22 01:11:36;;;;;;;5.15;4.95;;;;;;;17.02;89.28;100982.66;4394468;32;20492;-77
2021/08/22 01:14:22;;;;;;;5.28;5.07;;;;;;;16.88;89.18;100972.25;4384997;32;20079;-76
2021/08/22 01:16:53;;;;;;;5.32;5.12;;;;;;;16.48;89.38;100917.69;4406863;32;20083;-76
2021/08/22 01:19:30;;;;;;;5.40;5.20;;;;;;;16.90;90.10;101004.78;4381233;32;20080;-77
2021/08/22 01:21:56;;;;;;;5.05;4.85;;;;;;;16.22;90.62;100902.88;4408362;32;20420;-77
2021/08/22 01:24:21;;;;;;;6.78;6.47;;;;;;;16.70;89.91;101003.56;4393308;32;20149;-77
2021/08/22 01:26:48;;;;;;;5.32;5.10;;;;;;;16.41;90.37;100936.78;4382419;32;20149;-76
2021/08/22 01:29:13;;;;;;;5.05;4.85;;;;;;;16.70;91.43;101001.75;4396613;32;20195;-76
2021/08/22 01:31:43;;;;;;;5.30;5.00;;;;;;;16.79;91.15;101024.06;4413701;32;20084;-76
2021/08/22 01:34:09;;;;;;;4.97;4.78;;;;;;;15.97;90.77;100877.31;4409911;32;20073;-77
2021/08/22 01:36:34;;;;;;;6.18;5.78;;;;;;;16.77;91.29;101020.69;4416184;32;20080;-76
2021/08/22 01:39:00;;;;;;;5.00;4.80;;;;;;;16.75;90.85;101022.59;4387323;32;20091;-76
2021/08/22 01:41:25;;;;;;;5.30;5.10;;;;;;;16.74;91.47;101015.63;4423663;32;20828;-75
2021/08/22 01:43:52;;;;;;;5.00;4.80;;;;;;;16.77;90.96;101020.69;4389125;32;20080;-76
2021/08/22 01:46:20;;;;;;;5.15;4.95;;;;;;;16.64;91.07;100999.56;4425142;32;20708;-76
2021/08/22 01:48:45;;;;;;;5.20;5.00;;;;;;;16.66;91.42;101002.09;4405643;32;20090;-76
2021/08/22 01:51:14;;;;;;;5.40;5.20;;;;;;;15.73;91.10;100860.41;4427210;32;20053;-76
2021/08/22 01:53:39;;;;;;;5.80;5.50;;;;;;;16.36;91.16;100963.63;4407084;32;20060;-77
2021/08/22 01:56:05;;;;;;;5.40;5.00;;;;;;;16.57;92.24;101014.19;4424165;32;20585;-75
2021/08/22 01:58:30;;;;;;;5.40;5.18;;;;;;;16.03;92.93;100927.16;4406974;32;20072;-76
2021/08/22 02:00:56;;;;;;;5.30;5.10;;;;;;;16.52;92.89;100997.78;4406742;32;20076;-76
2021/08/22 02:03:43;;;;;;;5.25;5.05;;;;;;;16.53;92.47;100996.81;4406612;32;20079;-75
2021/08/22 02:06:27;;;;;;;5.22;5.03;;;;;;;16.50;93.75;100989.13;4402795;32;20063;-76
2021/08/22 02:08:56;;;;;;;5.20;5.00;;;;;;;16.07;93.91;100912.75;4412699;32;20065;-75
2021/08/22 02:11:23;;;;;;;5.10;4.90;;;;;;;16.26;93.62;100939.59;4421032;32;20072;-75
2021/08/22 02:13:48;;;;;;;5.20;5.00;;;;;;;16.68;93.86;101006.31;4411376;32;20522;-75
2021/08/22 02:16:17;;;;;;;5.40;5.12;;;;;;;16.19;94.53;100911.84;4409238;32;20072;-75
2021/08/22 02:18:42;;;;;;;5.18;4.97;;;;;;;16.92;93.47;101005.50;4415301;32;20163;-75
2021/08/22 02:21:07;;;;;;;5.75;5.30;;;;;;;16.19;93.19;100869.50;4400566;32;20056;-76
2021/08/22 02:23:33;;;;;;;5.20;5.00;;;;;;;16.77;93.36;100972.97;4426922;32;20068;-76
2021/08/22 02:25:58;;;;;;;5.68;5.37;;;;;;;17.17;93.69;101004.50;4402762;32;20079;-75
2021/08/22 02:28:24;;;;;;;5.40;5.20;;;;;;;16.57;92.68;100894.97;4427558;32;20090;-76
2021/08/22 02:30:50;;;;;;;5.20;5.00;;;;;;;17.26;92.35;101005.63;4399597;32;20072;-76
2021/08/22 02:33:15;;;;;;;5.60;5.30;;;;;;;17.29;93.07;101013.34;4391909;32;20199;-77
2021/08/22 02:35:40;;;;;;;5.20;5.00;;;;;;;17.33;92.21;101015.66;4389064;32;20619;-75
2021/08/22 02:38:06;;;;;;;5.30;5.00;;;;;;;17.37;92.78;101008.31;4409793;32;20387;-76
2021/08/22 02:40:31;;;;;;;5.25;5.05;;;;;;;16.55;92.94;100867.72;4391380;32;20476;-76
2021/08/22 02:42:57;;;;;;;5.30;5.10;;;;;;;17.46;92.93;101015.59;4402962;32;20073;-76
2021/08/22 02:45:22;;;;;;;5.50;5.30;;;;;;;17.48;92.24;101016.31;4401802;32;20099;-76
2021/08/22 02:47:47;;;;;;;5.70;5.40;;;;;;;17.39;92.45;101006.37;4394579;32;20075;-76
2021/08/22 02:50:13;;;;;;;5.20;5.00;;;;;;;17.22;92.71;100974.97;4390279;32;20536;-76
2021/08/22 02:52:38;;;;;;;5.53;5.22;;;;;;;17.53;91.86;101023.91;4392200;32;20437;-76
2021/08/22 02:55:03;;;;;;;5.22;5.03;;;;;;;17.46;92.92;101012.94;4395124;32;20079;-75
2021/08/22 02:57:29;;;;;;;5.40;5.10;;;;;;;17.16;92.71;100949.78;4400770;32;20154;-76
2021/08/22 02:59:54;;;;;;;5.55;5.30;;;;;;;17.55;91.92;101016.69;4391843;32;20068;-76
2021/08/22 03:02:20;;;;;;;5.43;5.12;;;;;;;17.25;92.80;100954.38;4387853;32;20587;-76
2021/08/22 03:04:45;;;;;;;5.87;5.57;;;;;;;17.21;92.72;100946.78;4404169;32;20098;-76
2021/08/22 03:07:10;;;;;;;5.75;5.45;;;;;;;17.66;92.66;101010.53;4385021;32;20073;-77
2021/08/22 03:09:36;;;;;;;5.50;5.20;;;;;;;17.62;92.40;101006.44;4401190;32;20083;-76
2021/08/22 03:12:01;;;;;;;5.12;4.93;;;;;;;17.68;92.04;101008.59;4393547;32;20083;-76
2021/08/22 03:14:27;;;;;;;5.70;5.40;;;;;;;17.27;91.45;100941.84;4388483;32;20061;-76
2021/08/22 03:16:52;;;;;;;5.47;5.18;;;;;;;17.66;92.10;101005.22;4386115;32;20088;-76
2021/08/22 03:19:17;;;;;;;5.70;5.40;;;;;;;17.64;92.44;101017.78;4386628;32;20091;-76
2021/08/22 03:21:45;;;;;;;5.90;5.60;;;;;;;17.60;91.46;100995.94;4400524;32;20077;-75
2021/08/22 03:24:13;;;;;;;5.32;5.12;;;;;;;17.53;91.29;100984.94;4401079;32;20076;-76
2021/08/22 03:26:39;;;;;;;5.53;5.22;;;;;;;17.27;91.24;100941.00;4404991;32;20080;-77
2021/08/22 03:29:04;;;;;;;5.40;5.20;;;;;;;17.70;90.96;101012.84;4398751;32;20514;-76
2021/08/22 03:31:29;;;;;;;5.80;5.50;;;;;;;17.56;91.03;100989.19;4404964;32;20079;-76
2021/08/22 03:33:55;;;;;;;5.72;5.45;;;;;;;17.33;91.95;100951.16;4397890;32;20087;-76
2021/08/22 03:36:20;;;;;;;5.70;5.40;;;;;;;17.06;91.70;100909.88;4397150;32;20084;-76
2021/08/22 03:38:46;;;;;;;5.72;5.43;;;;;;;17.29;91.49;100942.56;4414124;32;20069;-76
2021/08/22 03:41:11;;;;;;;5.85;5.55;;;;;;;17.69;90.81;101016.47;4413867;32;20110;-76
2021/08/22 03:43:36;;;;;;;5.70;5.35;;;;;;;17.60;90.31;101006.56;4398942;32;20486;-76
2021/08/22 03:46:02;;;;;;;5.18;4.97;;;;;;;17.48;91.27;100979.16;4412527;32;20448;-76
2021/08/22 03:48:27;;;;;;;5.70;5.40;;;;;;;17.09;91.15;100914.91;4414088;32;20511;-76
2021/08/22 03:50:53;;;;;;;5.75;5.43;;;;;;;16.82;91.07;100871.94;4403379;32;20068;-76
2021/08/22 03:53:18;;;;;;;5.97;5.68;;;;;;;17.67;90.71;101018.38;4398287;32;20072;-76
2021/08/22 03:55:44;;;;;;;5.82;5.53;;;;;;;17.57;90.27;101008.59;4399608;32;20593;-75
2021/08/22 03:58:10;;;;;;;5.12;4.93;;;;;;;17.67;91.05;101020.19;4413238;32;20472;-75
2021/08/22 04:00:36;;;;;;;6.65;6.25;;;;;;;17.67;91.28;101018.38;4412927;32;20555;-75
2021/08/22 04:03:01;;;;;;;6.18;5.57;;;;;;;17.66;90.50;101022.03;4413014;32;20095;-75
2021/08/22 04:05:26;;;;;;;5.28;5.07;;;;;;;17.60;90.44;101003.03;4409829;32;20929;-76
2021/08/22 04:07:54;;;;;;;5.53;5.28;;;;;;;16.88;90.64;100876.81;4401044;32;20069;-75
2021/08/22 04:10:19;;;;;;;5.93;5.62;;;;;;;17.55;90.51;101008.72;4402995;32;20072;-75
2021/08/22 04:12:45;;;;;;;5.72;5.43;;;;;;;17.71;90.81;101011.03;4416347;32;20341;-76
2021/08/22 04:15:10;;;;;;;5.10;4.90;;;;;;;17.64;90.73;101007.16;4415447;32;20412;-75
2021/08/22 04:17:36;;;;;;;6.05;5.75;;;;;;;17.53;90.82;100997.38;4414024;32;20475;-75
2021/08/22 04:20:01;;;;;;;5.87;5.43;;;;;;;17.46;90.05;100997.00;4402898;32;20080;-75
2021/08/22 04:22:26;;;;;;;5.60;5.35;;;;;;;17.54;91.20;101009.69;4419782;32;20077;-76
2021/08/22 04:24:52;;;;;;;5.37;5.18;;;;;;;17.60;91.31;101021.62;4401350;32;20084;-76
2021/08/22 04:27:17;;;;;;;5.53;5.25;;;;;;;16.89;91.54;100905.00;4416769;32;20583;-75
2021/08/22 04:29:42;;;;;;;5.50;5.20;;;;;;;17.37;91.30;101002.16;4411039;32;20081;-77
2021/08/22 04:32:08;;;;;;;5.57;5.28;;;;;;;17.54;91.53;101030.94;4407380;32;20087;-76
2021/08/22 04:34:33;;;;;;;6.78;6.37;;;;;;;17.40;91.40;101010.75;4416125;32;20767;-77
2021/08/22 04:36:59;;;;;;;6.93;5.82;;;;;;;17.40;91.42;101018.72;4403242;32;20620;-76
2021/08/22 04:39:24;;;;;;;5.30;5.00;;;;;;;17.55;90.26;101038.75;4422985;32;20064;-78
2021/08/22 04:41:49;;;;;;;6.35;5.82;;;;;;;17.48;90.00;101036.66;4413876;32;20079;-78
2021/08/22 04:44:15;;;;;;;5.12;4.93;;;;;;;17.45;90.24;101032.44;4424795;32;20078;-80
2021/08/22 04:46:42;;;;;;;6.45;6.05;;;;;;;17.13;90.51;100982.66;4414210;32;20590;-78
2021/08/22 04:49:07;;;;;;;5.60;5.30;;;;;;;17.12;89.54;100999.56;4417418;32;20061;-78
2021/08/22 04:51:33;;;;;;;5.40;5.10;;;;;;;17.27;89.04;101013.47;4415199;32;20079;-78
2021/08/22 04:53:58;;;;;;;6.15;5.70;;;;;;;17.04;89.40;100979.84;4412588;32;20069;-78
2021/08/22 04:56:23;;;;;;;5.97;5.68;;;;;;;17.35;89.98;101036.75;4412959;32;20167;-79
2021/08/22 04:58:49;;;;;;;5.78;5.47;;;;;;;17.30;89.74;101031.81;4418526;32;20089;-78
2021/08/22 05:01:15;;;;;;;5.30;5.00;;;;;;;17.12;89.98;101002.22;4417324;32;20095;-79
2021/08/22 05:03:41;;;;;;;5.25;4.95;;;;;;;17.20;89.27;101029.94;4423304;32;20443;-78
2021/08/22 05:06:07;;;;;;;5.15;4.95;;;;;;;17.27;89.42;101036.50;4414882;32;20120;-78
2021/08/22 05:08:32;;;;;;;5.62;5.32;;;;;;;17.28;88.88;101052.31;4416068;32;20594;-78
2021/08/22 05:10:57;;;;;;;6.18;5.78;;;;;;;17.14;89.08;101029.47;4414559;32;20514;-79
2021/08/22 05:13:23;;;;;;;5.15;4.90;;;;;;;17.13;88.87;101042.84;4428152;32;20668;-79
2021/08/22 05:15:50;;;;;;;5.35;5.12;;;;;;;16.76;88.85;100963.34;4447315;32;20072;-79
2021/08/22 05:18:19;;;;;;;5.93;5.40;;;;;;;17.07;88.88;101009.66;4416960;32;20162;-78
2021/08/22 05:20:44;;;;;;;5.50;5.20;;;;;;;17.15;88.51;101028.50;4432950;32;20068;-78
2021/08/22 05:23:09;;;;;;;5.82;5.30;;;;;;;17.26;87.36;101048.06;4426057;32;20064;-79
2021/08/22 05:25:35;;;;;;;5.40;5.18;;;;;;;17.32;86.84;101048.47;4420338;32;20080;-79
2021/08/22 05:28:00;;;;;;;5.20;5.00;;;;;;;17.44;87.33;101057.31;4408959;32;20614;-78
2021/08/22 05:30:25;;;;;;;5.30;5.00;;;;;;;17.49;86.72;101033.91;4411248;32;20060;-81
2021/08/22 05:32:51;;;;;;;5.20;4.90;;;;;;;17.74;87.09;101043.50;4412963;32;20060;-79
2021/08/22 05:35:16;;;;;;;5.70;5.40;;;;;;;17.87;86.50;101061.19;4408036;32;20069;-79
2021/08/22 05:37:41;;;;;;;5.25;5.05;;;;;;;17.73;85.59;101038.31;4413306;32;20157;-79
2021/08/22 05:40:07;;;;;;;5.78;5.37;;;;;;;17.88;84.45;101065.50;4417322;32;20065;-79
2021/08/22 05:42:33;;;;;;;5.43;5.12;;;;;;;17.51;84.12;100996.66;4414838;32;20090;-78
2021/08/22 05:44:58;;;;;;;5.97;5.45;;;;;;;17.99;84.51;101068.19;4407635;32;20586;-78
2021/08/22 05:47:23;;;;;;;5.30;5.00;;;;;;;17.93;84.14;101042.94;4407402;32;20081;-79
2021/08/22 05:49:49;;;;;;;5.57;5.18;;;;;;;17.96;83.52;101036.56;4407390;32;20115;-78
2021/08/22 05:52:14;;;;;;;5.65;5.32;;;;;;;17.57;83.62;100966.16;4411998;32;20609;-79
2021/08/22 05:54:40;;;;;;;5.78;5.47;;;;;;;18.27;83.44;101076.66;4405317;32;20069;-78
2021/08/22 05:57:05;;;;;;;5.87;5.57;;;;;;;15.03;83.58;100549.00;4388022;32;20104;-81
2021/08/22 05:59:30;;;;;;;5.25;5.05;;;;;;;18.00;83.37;101042.47;4406530;32;20086;-79
2021/08/22 06:01:56;;;;;;;6.75;6.15;;;;;;;17.86;83.82;101019.63;4410606;32;20668;-80
2021/08/22 06:04:21;;;;;;;5.80;5.43;;;;;;;15.47;83.20;100663.87;4403740;32;20618;-80
2021/08/22 06:06:46;;;;;;;6.43;6.03;;;;;;;18.25;83.61;101079.44;4408605;32;20500;-80
2021/08/22 06:09:12;;;;;;;6.45;6.05;;;;;;;17.77;83.00;100952.16;4407161;32;20073;-79
2021/08/22 06:11:37;;;;;;;5.57;5.28;;;;;;;18.50;82.75;101019.00;4409269;32;20614;-79
2021/08/22 06:14:03;;;;;;;5.87;5.53;;;;;;;19.11;81.16;101061.91;4406398;32;20087;-80
2021/08/22 06:16:28;;;;;;;5.50;5.30;;;;;;;19.16;79.63;101042.06;4410407;32;20069;-77
2021/08/22 06:18:53;;;;;;;6.28;5.87;;;;;;;19.47;79.49;101088.28;4401427;32;20083;-77
2021/08/22 06:21:19;;;;;;;5.95;5.55;;;;;;;19.42;78.40;101091.28;4409467;32;20403;-76
2021/08/22 06:23:44;;;;;;;5.95;5.65;;;;;;;18.87;78.41;101008.94;4403054;32;20069;-78
2021/08/22 06:26:10;;;;;;;6.20;5.90;;;;;;;19.40;78.45;101101.22;4390566;32;20901;-79
2021/08/22 06:28:35;;;;;;;5.87;5.57;;;;;;;19.05;78.93;101099.66;4407014;32;20346;-78
2021/08/22 06:31:00;;;;;;;5.75;5.45;;;;;;;18.69;79.00;101050.28;4414697;32;20079;-79
2021/08/22 06:33:26;;;;;;;6.55;6.15;;;;;;;18.34;79.30;100979.53;4427606;32;20103;-78
2021/08/22 06:35:51;;;;;;;6.40;6.00;;;;;;;18.93;78.85;101047.47;4403001;32;20088;-80
2021/08/22 06:38:16;;;;;;;6.18;5.78;;;;;;;19.13;77.82;101075.94;4427299;32;20449;-81
2021/08/22 06:40:42;;;;;;;6.10;5.70;;;;;;;18.54;77.92;100951.34;4408783;32;20181;-80
2021/08/22 06:43:07;;;;;;;5.82;5.53;;;;;;;19.47;77.33;101086.44;4433265;32;20579;-81
2021/08/22 06:45:32;;;;;;;6.10;5.70;;;;;;;19.48;77.41;101089.94;4406042;32;20145;-81
2021/08/22 06:47:58;;;;;;;6.12;5.82;;;;;;;19.60;77.40;101091.56;4420319;32;20095;-78
2021/08/22 06:50:26;;;;;;;5.97;5.60;;;;;;;19.46;76.68;101071.44;4404199;32;20076;-79
2021/08/22 06:52:51;;;;;;;6.62;6.20;;;;;;;19.52;76.67;101027.47;4409628;32;20163;-79
2021/08/22 06:55:17;;;;;;;6.20;5.90;;;;;;;19.75;74.64;101078.84;4413716;32;20583;-79
2021/08/22 06:57:42;;;;;;;6.12;5.78;;;;;;;19.58;74.70;101039.44;4419352;32;20090;-79
2021/08/22 07:00:08;;;;;;;6.00;5.60;;;;;;;19.55;75.06;101035.22;4404171;32;20068;-82
2021/08/22 07:02:34;;;;;;;6.00;5.70;;;;;;;18.96;74.41;100954.12;4420338;32;20064;-80
2021/08/22 07:04:59;;;;;;;5.97;5.68;;;;;;;19.21;75.67;101003.47;4401958;32;20101;-78
2021/08/22 07:07:24;;;;;;;6.00;5.70;;;;;;;19.93;75.48;101085.25;4415704;32;20640;-78
2021/08/22 07:09:50;;;;;;;5.45;5.15;;;;;;;20.26;74.88;101101.13;4401216;32;20064;-77
2021/08/22 07:12:15;;;;;;;6.07;5.70;;;;;;;20.35;73.93;101083.47;4416471;32;20069;-79
2021/08/22 07:14:41;;;;;;;6.30;6.00;;;;;;;20.36;73.23;101058.50;4415833;32;20080;-80
2021/08/22 07:17:06;;;;;;;6.00;5.70;;;;;;;20.11;72.89;101040.19;4413916;32;20148;-79
2021/08/22 07:19:31;;;;;;;6.32;6.00;;;;;;;20.52;72.75;101089.00;4404155;32;20076;-79
2021/08/22 07:21:57;;;;;;;6.53;6.12;;;;;;;20.48;72.47;101105.41;4432709;32;20092;-78
2021/08/22 07:24:22;;;;;;;6.30;5.90;;;;;;;20.14;73.44;101103.00;4414892;32;20069;-81
2021/08/22 07:26:48;;;;;;;5.53;5.32;;;;;;;20.06;75.20;101105.50;4412121;32;20527;-78
2021/08/22 07:29:13;;;;;;;6.00;5.70;;;;;;;18.98;75.55;100949.50;4417690;32;20064;-80
2021/08/22 07:31:38;;;;;;;5.82;5.35;;;;;;;19.75;75.91;101107.28;4430524;32;20151;-79
2021/08/22 07:34:04;;;;;;;5.95;5.60;;;;;;;19.18;77.55;101062.25;4419646;32;20644;-80
2021/08/22 07:36:29;;;;;;;6.20;5.80;;;;;;;18.89;78.42;101036.25;4416020;32;20435;-81
2021/08/22 07:38:55;;;;;;;6.18;5.75;;;;;;;19.20;79.38;101094.06;4415212;32;20076;-82
2021/08/22 07:41:20;;;;;;;6.22;5.87;;;;;;;19.29;80.16;101098.63;4416466;32;20569;-82
2021/08/22 07:43:45;;;;;;;6.03;5.72;;;;;;;19.50;79.48;101119.94;4417696;32;20193;-81
2021/08/22 07:46:11;;;;;;;5.72;5.43;;;;;;;19.64;80.17;101098.31;4417552;32;20476;-81
2021/08/22 07:48:36;;;;;;;5.78;5.47;;;;;;;19.49;79.04;101057.87;4415903;32;20680;-82
2021/08/22 07:51:01;;;;;;;7.45;5.70;;;;;;;20.12;78.22;101104.97;4419962;32;20459;-81
2021/08/22 07:53:27;;;;;;;5.37;5.10;;;;;;;20.34;77.76;101071.97;4419303;32;20618;-82
2021/08/22 07:55:52;;;;;;;5.68;5.37;;;;;;;20.22;76.99;100987.75;4406456;32;20384;-82
2021/08/22 07:58:18;;;;;;;5.72;5.43;;;;;;;21.03;75.37;101091.72;4416276;32;20068;-82
2021/08/22 08:00:43;;;;;;;5.37;5.15;;;;;;;21.03;74.80;101091.72;4404459;32;20068;-81
2021/08/22 08:03:08;;;;;;;5.93;5.62;;;;;;;20.66;74.31;101031.81;4418200;32;20137;-79
2021/08/22 08:05:34;;;;;;;5.57;5.28;;;;;;;21.43;73.44;101102.28;4401676;32;20072;-77
2021/08/22 08:07:59;;;;;;;6.15;5.65;;;;;;;20.71;70.96;101012.75;4402938;32;20083;-78
2021/08/22 08:10:26;;;;;;;5.75;5.45;;;;;;;19.71;71.85;100909.66;4408077;32;20136;-78
2021/08/22 08:12:51;;;;;;;6.00;5.70;;;;;;;20.35;73.00;101084.34;4403313;32;20618;-78
2021/08/22 08:15:17;;;;;;;6.12;5.82;;;;;;;20.04;74.16;101063.00;4413024;32;20322;-80
2021/08/22 08:17:42;;;;;;;6.03;5.70;;;;;;;20.02;75.90;101050.78;4433737;32;20327;-78
2021/08/22 08:20:08;;;;;;;6.20;5.60;;;;;;;20.75;75.12;101128.00;4410186;32;20204;-81
2021/08/22 08:22:33;;;;;;;5.82;5.45;;;;;;;19.78;74.21;100926.75;4421679;32;20076;-83
2021/08/22 08:24:59;;;;;;;5.93;5.62;;;;;;;20.43;73.10;101030.34;4407931;32;20106;-82
2021/08/22 08:27:24;;;;;;;6.70;6.20;;;;;;;20.66;72.05;101037.16;4415121;32;20068;-79
2021/08/22 08:29:50;;;;;;;5.45;5.25;;;;;;;20.80;72.59;101072.41;4406568;32;20084;-80
2021/08/22 08:32:15;;;;;;;6.00;5.70;;;;;;;20.15;71.83;100963.50;4416957;32;20736;-81
2021/08/22 08:34:40;;;;;;;6.00;5.70;;;;;;;20.98;72.16;101100.09;4408271;32;20072;-79
2021/08/22 08:37:06;;;;;;;6.95;6.45;;;;;;;21.16;72.18;101137.63;4403730;32;20080;-78
2021/08/22 08:39:31;;;;;;;6.10;5.70;;;;;;;21.14;72.12;101131.59;4415072;32;20087;-79
2021/08/22 08:42:19;;;;;;;5.95;5.45;;;;;;;20.94;72.84;101136.06;4403963;32;20828;-79
2021/08/22 08:44:44;;;;;;;5.90;5.60;;;;;;;20.91;73.68;101120.34;4415259;32;20157;-79
2021/08/22 08:47:13;;;;;;;5.62;5.35;;;;;;;20.44;73.23;101000.84;4401662;32;20527;-80
2021/08/22 08:49:52;;;;;;;6.28;5.87;;;;;;;21.02;72.72;101080.16;4431545;32;20133;-81
2021/08/22 08:52:31;;;;;;;6.05;5.75;;;;;;;21.23;72.76;101097.91;4431121;32;20204;-79
2021/08/22 08:55:02;;;;;;;6.20;5.80;;;;;;;20.94;72.43;101009.81;4428765;32;20083;-78
2021/08/22 08:57:28;;;;;;;6.00;5.70;;;;;;;21.74;70.55;101055.88;4420934;32;20520;-80
2021/08/22 08:59:53;;;;;;;5.97;5.57;;;;;;;22.23;68.94;101088.63;4410539;32;20148;-79
2021/08/22 09:02:19;;;;;;;5.80;5.50;;;;;;;22.02;67.47;100996.13;4419226;32;20100;-81
2021/08/22 09:04:53;;;;;;;6.40;6.05;;;;;;;23.15;65.51;101119.03;4424746;32;20567;-80
2021/08/22 09:07:46;;;;;;;6.00;5.70;;;;;;;23.07;63.98;101111.75;4434925;32;20091;-79
2021/08/22 09:10:49;;;;;;;6.40;5.93;;;;;;;23.27;63.26;101112.44;4435208;32;20076;-79
2021/08/22 09:13:33;;;;;;;;;;;;;;;23.29;62.50;101118.50;4434755;32;20083;-78
2021/08/22 09:16:36;;;;;;;6.65;6.25;;;;;;;22.86;62.32;101112.00;4442456;32;20536;-80
2021/08/22 09:19:23;;;;;;;5.62;5.32;;;;;;;22.78;62.24;101114.59;4446230;32;20087;-79
2021/08/22 09:22:26;;;;;;;5.82;5.53;;;;;;;22.38;62.98;101097.06;4443485;32;20072;-78
2021/08/22 09:25:10;;;;;;;;;;;;;;;22.61;62.03;101108.19;4440954;32;20064;-80
2021/08/22 09:27:51;;;;;;;5.43;5.22;;;;;;;23.13;59.63;101103.09;4445811;32;19994;-80
2021/08/22 09:30:38;;;;;;;5.85;5.55;;;;;;;23.60;58.70;101110.91;4441034;32;20076;-80
2021/08/22 09:33:25;;;;;;;5.43;5.20;;;;;;;23.82;57.28;101114.97;4414946;32;20069;-82
2021/08/22 09:36:02;;;;;;;5.60;5.30;;;;;;;23.62;57.54;101103.56;4420760;32;20281;-78
2021/08/22 09:39:05;;;;;;;5.45;5.22;;;;;;;23.26;57.45;101110.78;4413413;32;20080;-79
2021/08/22 09:42:08;;;;;;;5.65;5.35;;;;;;;22.91;58.20;101109.69;4424007;32;20079;-75
2021/08/22 09:44:43;;;;;;;6.20;5.82;;;;;;;22.63;59.51;101111.56;4412837;32;20091;-77
2021/08/22 09:47:40;;;;;;;5.53;5.32;;;;;;;21.92;58.89;100995.34;4407403;32;20080;-77
2021/08/22 09:50:44;;;;;;;6.18;5.87;;;;;;;22.84;58.51;101111.31;4406204;32;20085;-81
2021/08/22 09:53:35;;;;;;;6.10;5.70;;;;;;;22.62;57.23;101109.88;4404079;32;20657;-78
2021/08/22 09:56:31;;;;;;;6.15;5.85;;;;;;;22.69;59.10;101117.19;4414457;32;20523;-78
2021/08/22 09:59:15;;;;;;;7.22;5.87;;;;;;;23.42;57.38;101118.13;4416832;32;20076;-79
2021/08/22 10:02:16;;;;;;;5.80;5.50;;;;;;;23.49;56.01;101087.03;4418670;32;20081;-78
2021/08/22 10:04:47;;;;;;;5.97;5.68;;;;;;;23.49;55.61;101119.19;4413637;32;20096;-79
2021/08/22 10:07:30;;;;;;;6.03;5.72;;;;;;;23.27;53.67;101048.19;4414561;32;20634;-79
2021/08/22 10:10:00;;;;;;;5.82;5.53;;;;;;;23.86;52.74;101110.97;4407652;32;20087;-73
2021/08/22 10:12:25;;;;;;;5.80;5.50;;;;;;;22.41;54.11;101000.47;4411378;32;20181;-74
2021/08/22 10:14:51;;;;;;;5.70;5.40;;;;;;;22.70;53.86;101086.72;4404013;32;20692;-77
2021/08/22 10:17:22;;;;;;;5.97;5.68;;;;;;;22.93;53.99;101090.81;4399443;32;20075;-77
2021/08/22 10:19:49;;;;;;;6.15;5.72;;;;;;;23.20;54.84;101112.22;4383391;32;20102;-76
2021/08/22 10:22:18;;;;;;;6.00;5.70;;;;;;;23.65;52.56;101105.06;4395635;32;20715;-79
2021/08/22 10:24:54;;;;;;;5.75;5.45;;;;;;;22.56;51.13;100933.94;4396448;32;20080;-76
2021/08/22 10:27:39;;;;;;;5.90;5.60;;;;;;;23.64;52.40;101096.19;4398619;32;20246;-79
2021/08/22 10:30:18;;;;;;;5.82;5.53;;;;;;;23.56;52.62;101089.94;4411127;32;20084;-79
2021/08/22 10:32:58;;;;;;;5.70;5.40;;;;;;;23.87;50.73;101093.03;4424041;32;20634;-77
2021/08/22 10:35:28;;;;;;;6.00;5.57;;;;;;;23.23;51.41;100971.81;4426332;32;20072;-76
2021/08/22 10:37:53;;;;;;;5.18;4.97;;;;;;;23.65;48.59;101027.37;4419080;32;20121;-82
2021/08/22 10:40:25;;;;;;;5.50;5.25;;;;;;;23.56;48.94;100997.00;4424464;32;20092;-83
2021/08/22 10:43:05;;;;;;;5.47;5.18;;;;;;;24.45;47.00;101091.50;4436447;32;20067;-84
2021/08/22 10:45:40;;;;;;;5.60;5.30;;;;;;;24.63;47.17;101089.59;4433867;32;20082;-83
2021/08/22 10:48:08;;;;;;;6.22;5.82;;;;;;;24.40;48.12;100991.91;4445999;32;20098;-84
2021/08/22 10:51:08;;;;;;;6.85;6.28;;;;;;;24.91;46.60;101070.53;4406612;32;20101;-85
2021/08/22 10:53:47;;;;;;;5.75;5.45;;;;;;;24.63;45.88;101069.97;4407000;32;20186;-83
2021/08/22 10:56:22;;;;;;;5.72;5.43;;;;;;;24.21;47.23;101095.75;4406855;32;20107;-82
2021/08/22 10:59:07;;;;;;;5.70;5.40;;;;;;;23.78;47.08;101092.16;4443333;32;20699;-83
2021/08/22 11:01:36;;;;;;;5.72;5.43;;;;;;;23.83;45.80;101030.84;4441781;32;20075;-84
2021/08/22 11:04:10;;;;;;;5.60;5.30;;;;;;;24.99;45.79;101083.16;4415892;32;20073;-82
2021/08/22 11:06:51;;;;;;;5.65;5.35;;;;;;;24.16;45.09;100939.03;4429607;32;20080;-83
2021/08/22 11:09:32;;;;;;;5.70;5.40;;;;;;;25.35;45.12;101064.09;4408853;32;20632;-82
2021/08/22 11:11:57;;;;;;;6.20;5.82;;;;;;;24.40;45.09;100865.81;4417208;32;20725;-81
2021/08/22 11:14:23;;;;;;;5.82;5.53;;;;;;;24.39;45.61;101017.03;4413284;32;20069;-80
2021/08/22 11:16:49;;;;;;;5.78;5.47;;;;;;;23.75;45.91;100902.13;4412095;32;20169;-83
2021/08/22 11:19:15;;;;;;;5.82;5.50;;;;;;;23.97;43.87;100948.16;4409275;32;20068;-82
2021/08/22 11:21:40;;;;;;;6.00;5.70;;;;;;;24.56;46.52;101068.97;4406727;32;20083;-82
2021/08/22 11:24:06;;;;;;;5.70;5.40;;;;;;;24.40;46.00;101000.78;4409129;32;20061;-83
2021/08/22 11:26:32;;;;;;;5.70;5.40;;;;;;;24.27;46.57;101021.84;4414324;32;20609;-81
2021/08/22 11:28:57;;;;;;;5.60;5.30;;;;;;;24.54;45.82;101066.44;4420957;32;20072;-82
2021/08/22 11:31:23;;;;;;;5.97;5.68;;;;;;;25.03;44.33;101093.38;4411356;32;20127;-82
2021/08/22 11:33:49;;;;;;;5.68;5.37;;;;;;;24.99;43.74;101022.22;4425600;32;20061;-82